NO-0005 weather

CLOSED Lindøye Seaplane Base
Oslo, Oslo, Norway

Public forecast

Using degrees Celsius for public forecast. Weather courtesy of forecast.io.

Closest aviation weather report (METAR) to Lindøye Seaplane Base

Closest report is Oslo, Fornebu Airport, 3.1 nm (5.7 km) W. Retrieved 2020/06/02 01:50 UTC (24 minutes ago):

ENFB 020150Z AUTO 26004KT 0150NDV -RA NCD ///// Q//// W///S/

Closest aviation forecast (TAF) to Lindøye Seaplane Base

Closest forecast is Oslo Gardermoen Airport, 21.5 nm (39.8 km) NNE. Retrieved 2020-06-02 00:57 UTC (1 hour ago):

TAF ENGM 012300Z 0200/0224 VRB05KT CAVOK BECMG 0210/0212 19012KT BECMG 0221/0223 VRB05KT